sensor_id;sensor_type;location;lat;lon;timestamp;P1;durP1;ratioP1;P2;durP2;ratioP2
64619;SDS011;51029;51.058;13.826;2024-02-16T00:02:20;23.13;;;16.03;;
64619;SDS011;51029;51.058;13.826;2024-02-16T00:04:47;22.13;;;15.30;;
64619;SDS011;51029;51.058;13.826;2024-02-16T00:07:13;24.63;;;16.27;;
64619;SDS011;51029;51.058;13.826;2024-02-16T00:09:39;20.47;;;14.80;;
64619;SDS011;51029;51.058;13.826;2024-02-16T00:12:05;19.40;;;14.20;;
64619;SDS011;51029;51.058;13.826;2024-02-16T00:14:31;23.03;;;15.30;;
64619;SDS011;51029;51.058;13.826;2024-02-16T00:16:57;19.70;;;13.93;;
64619;SDS011;51029;51.058;13.826;2024-02-16T00:19:23;20.30;;;14.63;;
64619;SDS011;51029;51.058;13.826;2024-02-16T00:21:49;19.20;;;14.77;;
64619;SDS011;51029;51.058;13.826;2024-02-16T00:24:16;20.93;;;13.97;;
64619;SDS011;51029;51.058;13.826;2024-02-16T00:26:42;24.90;;;15.63;;
64619;SDS011;51029;51.058;13.826;2024-02-16T00:29:10;20.70;;;14.57;;
64619;SDS011;51029;51.058;13.826;2024-02-16T00:31:36;21.67;;;15.30;;
64619;SDS011;51029;51.058;13.826;2024-02-16T00:34:03;22.47;;;15.63;;
64619;SDS011;51029;51.058;13.826;2024-02-16T00:36:29;22.00;;;15.27;;
64619;SDS011;51029;51.058;13.826;2024-02-16T00:38:55;22.03;;;15.63;;
64619;SDS011;51029;51.058;13.826;2024-02-16T00:41:22;21.33;;;15.63;;
64619;SDS011;51029;51.058;13.826;2024-02-16T00:43:48;21.73;;;15.47;;
64619;SDS011;51029;51.058;13.826;2024-02-16T00:46:14;21.20;;;15.50;;
64619;SDS011;51029;51.058;13.826;2024-02-16T00:48:40;22.17;;;15.07;;
64619;SDS011;51029;51.058;13.826;2024-02-16T00:51:06;21.20;;;14.83;;
64619;SDS011;51029;51.058;13.826;2024-02-16T00:53:32;21.87;;;16.07;;
64619;SDS011;51029;51.058;13.826;2024-02-16T00:55:58;21.07;;;15.57;;
64619;SDS011;51029;51.058;13.826;2024-02-16T00:58:24;20.57;;;14.93;;
64619;SDS011;51029;51.058;13.826;2024-02-16T01:00:50;22.57;;;15.23;;
64619;SDS011;51029;51.058;13.826;2024-02-16T01:03:15;23.57;;;15.90;;
64619;SDS011;51029;51.058;13.826;2024-02-16T01:05:41;21.37;;;15.00;;
64619;SDS011;51029;51.058;13.826;2024-02-16T01:08:07;21.97;;;16.47;;
64619;SDS011;51029;51.058;13.826;2024-02-16T01:10:33;20.23;;;15.17;;
64619;SDS011;51029;51.058;13.826;2024-02-16T01:12:59;21.33;;;15.47;;
64619;SDS011;51029;51.058;13.826;2024-02-16T01:15:25;20.87;;;15.13;;
64619;SDS011;51029;51.058;13.826;2024-02-16T01:17:52;18.67;;;14.83;;
64619;SDS011;51029;51.058;13.826;2024-02-16T01:20:18;20.83;;;16.10;;
64619;SDS011;51029;51.058;13.826;2024-02-16T01:22:45;20.83;;;16.43;;
64619;SDS011;51029;51.058;13.826;2024-02-16T01:25:11;22.97;;;17.30;;
64619;SDS011;51029;51.058;13.826;2024-02-16T01:27:37;20.80;;;16.23;;
64619;SDS011;51029;51.058;13.826;2024-02-16T01:30:03;21.97;;;16.53;;
64619;SDS011;51029;51.058;13.826;2024-02-16T01:32:29;22.77;;;17.07;;
64619;SDS011;51029;51.058;13.826;2024-02-16T01:34:55;21.33;;;16.07;;
64619;SDS011;51029;51.058;13.826;2024-02-16T01:37:21;23.27;;;16.93;;
64619;SDS011;51029;51.058;13.826;2024-02-16T01:39:47;22.63;;;17.10;;
64619;SDS011;51029;51.058;13.826;2024-02-16T01:42:13;22.27;;;17.10;;
64619;SDS011;51029;51.058;13.826;2024-02-16T01:44:39;25.90;;;18.30;;
64619;SDS011;51029;51.058;13.826;2024-02-16T01:47:05;23.97;;;17.70;;
64619;SDS011;51029;51.058;13.826;2024-02-16T01:49:31;21.80;;;16.70;;
64619;SDS011;51029;51.058;13.826;2024-02-16T01:51:57;21.80;;;18.50;;
64619;SDS011;51029;51.058;13.826;2024-02-16T01:54:23;22.63;;;17.20;;
64619;SDS011;51029;51.058;13.826;2024-02-16T01:56:49;24.50;;;17.60;;
64619;SDS011;51029;51.058;13.826;2024-02-16T01:59:16;22.57;;;17.77;;
64619;SDS011;51029;51.058;13.826;2024-02-16T02:01:42;20.53;;;17.37;;
64619;SDS011;51029;51.058;13.826;2024-02-16T02:04:08;21.43;;;17.47;;
64619;SDS011;51029;51.058;13.826;2024-02-16T02:06:34;23.90;;;18.30;;
64619;SDS011;51029;51.058;13.826;2024-02-16T02:09:01;23.33;;;18.07;;
64619;SDS011;51029;51.058;13.826;2024-02-16T02:11:27;21.80;;;17.90;;
64619;SDS011;51029;51.058;13.826;2024-02-16T02:13:52;21.23;;;18.23;;
64619;SDS011;51029;51.058;13.826;2024-02-16T02:16:18;21.10;;;16.77;;
64619;SDS011;51029;51.058;13.826;2024-02-16T02:18:44;21.43;;;17.73;;
64619;SDS011;51029;51.058;13.826;2024-02-16T02:21:10;23.23;;;18.53;;
64619;SDS011;51029;51.058;13.826;2024-02-16T02:23:38;21.73;;;17.83;;
64619;SDS011;51029;51.058;13.826;2024-02-16T02:26:04;21.07;;;17.97;;
64619;SDS011;51029;51.058;13.826;2024-02-16T02:28:30;22.27;;;17.60;;
64619;SDS011;51029;51.058;13.826;2024-02-16T02:30:56;25.00;;;18.73;;
64619;SDS011;51029;51.058;13.826;2024-02-16T02:33:22;24.33;;;19.00;;
64619;SDS011;51029;51.058;13.826;2024-02-16T02:35:49;23.10;;;18.77;;
64619;SDS011;51029;51.058;13.826;2024-02-16T02:38:16;24.43;;;18.93;;
64619;SDS011;51029;51.058;13.826;2024-02-16T02:40:42;24.00;;;19.40;;
64619;SDS011;51029;51.058;13.826;2024-02-16T02:43:08;24.17;;;18.80;;
64619;SDS011;51029;51.058;13.826;2024-02-16T02:45:34;23.97;;;19.00;;
64619;SDS011;51029;51.058;13.826;2024-02-16T02:48:00;22.17;;;18.03;;
64619;SDS011;51029;51.058;13.826;2024-02-16T02:50:25;23.23;;;18.70;;
64619;SDS011;51029;51.058;13.826;2024-02-16T02:52:51;23.27;;;18.93;;
64619;SDS011;51029;51.058;13.826;2024-02-16T02:55:17;24.90;;;19.77;;
64619;SDS011;51029;51.058;13.826;2024-02-16T02:57:44;23.63;;;18.77;;
64619;SDS011;51029;51.058;13.826;2024-02-16T03:00:10;24.27;;;20.13;;
64619;SDS011;51029;51.058;13.826;2024-02-16T03:02:39;26.97;;;20.53;;
64619;SDS011;51029;51.058;13.826;2024-02-16T03:05:05;24.20;;;20.13;;
64619;SDS011;51029;51.058;13.826;2024-02-16T03:07:32;25.17;;;19.80;;
64619;SDS011;51029;51.058;13.826;2024-02-16T03:09:58;23.47;;;18.73;;
64619;SDS011;51029;51.058;13.826;2024-02-16T03:12:24;20.83;;;17.87;;
64619;SDS011;51029;51.058;13.826;2024-02-16T03:14:50;23.47;;;18.87;;
64619;SDS011;51029;51.058;13.826;2024-02-16T03:17:16;22.60;;;18.60;;
64619;SDS011;51029;51.058;13.826;2024-02-16T03:19:41;24.73;;;19.03;;
64619;SDS011;51029;51.058;13.826;2024-02-16T03:22:07;24.23;;;20.33;;
64619;SDS011;51029;51.058;13.826;2024-02-16T03:24:33;22.70;;;18.43;;
64619;SDS011;51029;51.058;13.826;2024-02-16T03:26:59;23.07;;;18.93;;
64619;SDS011;51029;51.058;13.826;2024-02-16T03:29:25;24.50;;;18.77;;
64619;SDS011;51029;51.058;13.826;2024-02-16T03:31:51;22.37;;;18.30;;
64619;SDS011;51029;51.058;13.826;2024-02-16T03:34:17;22.50;;;18.53;;
64619;SDS011;51029;51.058;13.826;2024-02-16T03:36:43;22.93;;;18.47;;
64619;SDS011;51029;51.058;13.826;2024-02-16T03:39:09;23.07;;;18.83;;
64619;SDS011;51029;51.058;13.826;2024-02-16T03:41:35;25.57;;;20.37;;
64619;SDS011;51029;51.058;13.826;2024-02-16T03:44:01;23.27;;;18.77;;
64619;SDS011;51029;51.058;13.826;2024-02-16T03:46:27;23.13;;;19.07;;
64619;SDS011;51029;51.058;13.826;2024-02-16T03:48:53;23.77;;;18.83;;
64619;SDS011;51029;51.058;13.826;2024-02-16T03:51:19;22.70;;;18.80;;
64619;SDS011;51029;51.058;13.826;2024-02-16T03:53:45;23.70;;;19.43;;
64619;SDS011;51029;51.058;13.826;2024-02-16T03:56:11;24.17;;;20.03;;
64619;SDS011;51029;51.058;13.826;2024-02-16T03:58:37;22.10;;;18.87;;
64619;SDS011;51029;51.058;13.826;2024-02-16T04:01:03;24.60;;;19.90;;
64619;SDS011;51029;51.058;13.826;2024-02-16T04:03:31;23.00;;;19.37;;
64619;SDS011;51029;51.058;13.826;2024-02-16T04:05:57;26.60;;;20.13;;
64619;SDS011;51029;51.058;13.826;2024-02-16T04:08:24;21.70;;;19.43;;
64619;SDS011;51029;51.058;13.826;2024-02-16T04:10:50;22.30;;;19.57;;
64619;SDS011;51029;51.058;13.826;2024-02-16T04:13:16;23.17;;;20.10;;
64619;SDS011;51029;51.058;13.826;2024-02-16T04:15:42;24.73;;;20.67;;
64619;SDS011;51029;51.058;13.826;2024-02-16T04:18:08;26.57;;;21.53;;
64619;SDS011;51029;51.058;13.826;2024-02-16T04:20:34;23.73;;;19.60;;
64619;SDS011;51029;51.058;13.826;2024-02-16T04:23:00;23.20;;;20.23;;
64619;SDS011;51029;51.058;13.826;2024-02-16T04:25:26;25.60;;;21.63;;
64619;SDS011;51029;51.058;13.826;2024-02-16T04:27:53;24.20;;;21.10;;
64619;SDS011;51029;51.058;13.826;2024-02-16T04:30:19;24.93;;;21.43;;
64619;SDS011;51029;51.058;13.826;2024-02-16T04:32:44;24.47;;;20.07;;
64619;SDS011;51029;51.058;13.826;2024-02-16T04:35:10;25.80;;;21.23;;
64619;SDS011;51029;51.058;13.826;2024-02-16T04:37:37;25.50;;;20.57;;
64619;SDS011;51029;51.058;13.826;2024-02-16T04:40:04;24.23;;;20.37;;
64619;SDS011;51029;51.058;13.826;2024-02-16T04:42:30;24.17;;;21.20;;
64619;SDS011;51029;51.058;13.826;2024-02-16T04:44:56;25.23;;;20.53;;
64619;SDS011;51029;51.058;13.826;2024-02-16T04:47:24;24.03;;;20.63;;
64619;SDS011;51029;51.058;13.826;2024-02-16T04:49:50;26.20;;;21.83;;
64619;SDS011;51029;51.058;13.826;2024-02-16T04:52:16;25.90;;;21.63;;
64619;SDS011;51029;51.058;13.826;2024-02-16T04:54:42;25.33;;;21.53;;
64619;SDS011;51029;51.058;13.826;2024-02-16T04:57:08;24.80;;;21.67;;
64619;SDS011;51029;51.058;13.826;2024-02-16T04:59:34;24.17;;;21.60;;
64619;SDS011;51029;51.058;13.826;2024-02-16T05:02:00;23.60;;;20.77;;
64619;SDS011;51029;51.058;13.826;2024-02-16T05:04:26;25.47;;;22.13;;
64619;SDS011;51029;51.058;13.826;2024-02-16T05:06:52;25.67;;;20.90;;
64619;SDS011;51029;51.058;13.826;2024-02-16T05:09:22;24.87;;;21.13;;
64619;SDS011;51029;51.058;13.826;2024-02-16T05:11:49;26.23;;;23.07;;
64619;SDS011;51029;51.058;13.826;2024-02-16T05:14:16;26.70;;;22.20;;
64619;SDS011;51029;51.058;13.826;2024-02-16T05:16:43;28.10;;;23.07;;
64619;SDS011;51029;51.058;13.826;2024-02-16T05:19:09;25.23;;;22.10;;
64619;SDS011;51029;51.058;13.826;2024-02-16T05:21:35;23.83;;;20.90;;
64619;SDS011;51029;51.058;13.826;2024-02-16T05:24:01;27.13;;;22.30;;
64619;SDS011;51029;51.058;13.826;2024-02-16T05:26:27;25.90;;;21.53;;
64619;SDS011;51029;51.058;13.826;2024-02-16T05:28:53;27.27;;;22.10;;
64619;SDS011;51029;51.058;13.826;2024-02-16T05:31:19;27.37;;;22.20;;
64619;SDS011;51029;51.058;13.826;2024-02-16T05:33:47;25.40;;;22.23;;
64619;SDS011;51029;51.058;13.826;2024-02-16T05:36:16;24.20;;;21.60;;
64619;SDS011;51029;51.058;13.826;2024-02-16T05:38:43;26.57;;;21.93;;
64619;SDS011;51029;51.058;13.826;2024-02-16T05:41:09;24.90;;;21.20;;
64619;SDS011;51029;51.058;13.826;2024-02-16T05:43:36;25.47;;;21.10;;
64619;SDS011;51029;51.058;13.826;2024-02-16T05:46:03;25.30;;;21.07;;
64619;SDS011;51029;51.058;13.826;2024-02-16T05:48:31;26.33;;;21.80;;
64619;SDS011;51029;51.058;13.826;2024-02-16T05:50:59;25.67;;;21.97;;
64619;SDS011;51029;51.058;13.826;2024-02-16T05:53:26;26.07;;;21.90;;
64619;SDS011;51029;51.058;13.826;2024-02-16T05:55:53;26.97;;;22.97;;
64619;SDS011;51029;51.058;13.826;2024-02-16T05:58:20;26.37;;;21.13;;
64619;SDS011;51029;51.058;13.826;2024-02-16T06:00:45;25.73;;;21.33;;
64619;SDS011;51029;51.058;13.826;2024-02-16T06:03:13;27.10;;;21.47;;
64619;SDS011;51029;51.058;13.826;2024-02-16T06:05:39;28.53;;;23.33;;
64619;SDS011;51029;51.058;13.826;2024-02-16T06:08:12;25.50;;;21.33;;
64619;SDS011;51029;51.058;13.826;2024-02-16T06:10:38;26.10;;;22.67;;
64619;SDS011;51029;51.058;13.826;2024-02-16T06:13:05;26.27;;;22.33;;
64619;SDS011;51029;51.058;13.826;2024-02-16T06:15:31;26.60;;;22.33;;
64619;SDS011;51029;51.058;13.826;2024-02-16T06:17:59;26.03;;;22.50;;
64619;SDS011;51029;51.058;13.826;2024-02-16T06:20:25;27.20;;;21.57;;
64619;SDS011;51029;51.058;13.826;2024-02-16T06:22:51;26.30;;;21.67;;
64619;SDS011;51029;51.058;13.826;2024-02-16T06:25:17;27.70;;;22.43;;
64619;SDS011;51029;51.058;13.826;2024-02-16T06:27:43;27.03;;;22.53;;
64619;SDS011;51029;51.058;13.826;2024-02-16T06:30:11;27.40;;;22.67;;
64619;SDS011;51029;51.058;13.826;2024-02-16T06:32:38;27.10;;;21.53;;
64619;SDS011;51029;51.058;13.826;2024-02-16T06:35:05;26.33;;;22.00;;
64619;SDS011;51029;51.058;13.826;2024-02-16T06:37:32;27.37;;;23.23;;
64619;SDS011;51029;51.058;13.826;2024-02-16T06:39:58;30.27;;;22.47;;
64619;SDS011;51029;51.058;13.826;2024-02-16T06:42:24;29.20;;;23.40;;
64619;SDS011;51029;51.058;13.826;2024-02-16T06:44:50;27.63;;;22.53;;
64619;SDS011;51029;51.058;13.826;2024-02-16T06:47:15;25.60;;;22.00;;
64619;SDS011;51029;51.058;13.826;2024-02-16T06:49:41;27.30;;;22.53;;
64619;SDS011;51029;51.058;13.826;2024-02-16T06:52:07;27.40;;;22.70;;
64619;SDS011;51029;51.058;13.826;2024-02-16T06:54:34;29.53;;;23.20;;
64619;SDS011;51029;51.058;13.826;2024-02-16T06:57:00;29.27;;;22.87;;
64619;SDS011;51029;51.058;13.826;2024-02-16T06:59:26;27.00;;;22.77;;
64619;SDS011;51029;51.058;13.826;2024-02-16T07:01:52;29.70;;;23.40;;
64619;SDS011;51029;51.058;13.826;2024-02-16T07:04:18;28.67;;;23.47;;
64619;SDS011;51029;51.058;13.826;2024-02-16T07:06:44;28.57;;;22.70;;
64619;SDS011;51029;51.058;13.826;2024-02-16T07:09:10;25.80;;;22.87;;
64619;SDS011;51029;51.058;13.826;2024-02-16T07:11:40;28.67;;;23.30;;
64619;SDS011;51029;51.058;13.826;2024-02-16T07:14:06;29.80;;;23.70;;
64619;SDS011;51029;51.058;13.826;2024-02-16T07:16:33;26.77;;;23.43;;
64619;SDS011;51029;51.058;13.826;2024-02-16T07:18:59;28.30;;;23.93;;
64619;SDS011;51029;51.058;13.826;2024-02-16T07:21:24;30.63;;;24.70;;
64619;SDS011;51029;51.058;13.826;2024-02-16T07:23:51;28.87;;;23.40;;
64619;SDS011;51029;51.058;13.826;2024-02-16T07:26:17;30.40;;;23.93;;
64619;SDS011;51029;51.058;13.826;2024-02-16T07:28:42;25.70;;;22.50;;
64619;SDS011;51029;51.058;13.826;2024-02-16T07:31:08;28.63;;;23.50;;
64619;SDS011;51029;51.058;13.826;2024-02-16T07:33:36;29.40;;;23.10;;
64619;SDS011;51029;51.058;13.826;2024-02-16T07:36:02;26.93;;;23.17;;
64619;SDS011;51029;51.058;13.826;2024-02-16T07:38:28;27.80;;;21.87;;
64619;SDS011;51029;51.058;13.826;2024-02-16T07:40:55;27.80;;;23.57;;
64619;SDS011;51029;51.058;13.826;2024-02-16T07:43:21;30.07;;;23.47;;
64619;SDS011;51029;51.058;13.826;2024-02-16T07:45:49;26.63;;;21.93;;
64619;SDS011;51029;51.058;13.826;2024-02-16T07:48:14;27.23;;;22.87;;
64619;SDS011;51029;51.058;13.826;2024-02-16T07:50:40;24.93;;;21.23;;
64619;SDS011;51029;51.058;13.826;2024-02-16T07:53:06;26.33;;;21.97;;
64619;SDS011;51029;51.058;13.826;2024-02-16T07:55:34;28.47;;;22.37;;
64619;SDS011;51029;51.058;13.826;2024-02-16T07:58:00;27.40;;;22.23;;
64619;SDS011;51029;51.058;13.826;2024-02-16T08:00:26;25.43;;;20.57;;
64619;SDS011;51029;51.058;13.826;2024-02-16T08:02:53;25.40;;;20.93;;
64619;SDS011;51029;51.058;13.826;2024-02-16T08:05:19;22.70;;;19.87;;
64619;SDS011;51029;51.058;13.826;2024-02-16T08:07:45;22.93;;;19.67;;
64619;SDS011;51029;51.058;13.826;2024-02-16T08:10:18;23.57;;;19.47;;
64619;SDS011;51029;51.058;13.826;2024-02-16T08:12:45;22.53;;;19.50;;
64619;SDS011;51029;51.058;13.826;2024-02-16T08:15:11;23.20;;;19.93;;
64619;SDS011;51029;51.058;13.826;2024-02-16T08:17:38;20.90;;;18.67;;
64619;SDS011;51029;51.058;13.826;2024-02-16T08:20:05;21.40;;;18.73;;
64619;SDS011;51029;51.058;13.826;2024-02-16T08:22:31;21.97;;;18.97;;
64619;SDS011;51029;51.058;13.826;2024-02-16T08:24:57;20.60;;;18.13;;
64619;SDS011;51029;51.058;13.826;2024-02-16T08:27:23;22.07;;;19.00;;
64619;SDS011;51029;51.058;13.826;2024-02-16T08:29:50;21.47;;;18.83;;
64619;SDS011;51029;51.058;13.826;2024-02-16T08:32:19;23.07;;;19.03;;
64619;SDS011;51029;51.058;13.826;2024-02-16T08:34:45;21.47;;;17.93;;
64619;SDS011;51029;51.058;13.826;2024-02-16T08:37:13;20.40;;;18.17;;
64619;SDS011;51029;51.058;13.826;2024-02-16T08:39:39;20.60;;;17.33;;
64619;SDS011;51029;51.058;13.826;2024-02-16T08:42:06;20.43;;;18.23;;
64619;SDS011;51029;51.058;13.826;2024-02-16T08:44:33;20.73;;;18.53;;
64619;SDS011;51029;51.058;13.826;2024-02-16T08:46:59;22.07;;;18.87;;
64619;SDS011;51029;51.058;13.826;2024-02-16T08:49:25;21.87;;;18.90;;
64619;SDS011;51029;51.058;13.826;2024-02-16T08:51:52;22.73;;;19.47;;
64619;SDS011;51029;51.058;13.826;2024-02-16T08:54:17;22.83;;;19.40;;
64619;SDS011;51029;51.058;13.826;2024-02-16T08:56:45;20.60;;;18.37;;
64619;SDS011;51029;51.058;13.826;2024-02-16T08:59:11;22.73;;;20.07;;
64619;SDS011;51029;51.058;13.826;2024-02-16T09:01:38;22.20;;;19.17;;
64619;SDS011;51029;51.058;13.826;2024-02-16T09:04:07;20.80;;;18.23;;
64619;SDS011;51029;51.058;13.826;2024-02-16T09:06:33;20.97;;;17.83;;
64619;SDS011;51029;51.058;13.826;2024-02-16T09:09:03;20.03;;;17.93;;
64619;SDS011;51029;51.058;13.826;2024-02-16T09:11:29;20.10;;;18.00;;
64619;SDS011;51029;51.058;13.826;2024-02-16T09:13:55;22.17;;;18.73;;
64619;SDS011;51029;51.058;13.826;2024-02-16T09:16:21;20.70;;;17.33;;
64619;SDS011;51029;51.058;13.826;2024-02-16T09:18:47;19.57;;;17.53;;
64619;SDS011;51029;51.058;13.826;2024-02-16T09:21:13;21.33;;;18.67;;
64619;SDS011;51029;51.058;13.826;2024-02-16T09:23:39;19.70;;;17.60;;
64619;SDS011;51029;51.058;13.826;2024-02-16T09:26:06;20.50;;;18.13;;
64619;SDS011;51029;51.058;13.826;2024-02-16T09:28:38;19.03;;;16.80;;
64619;SDS011;51029;51.058;13.826;2024-02-16T09:31:04;19.03;;;16.50;;
64619;SDS011;51029;51.058;13.826;2024-02-16T09:33:30;20.17;;;17.17;;
64619;SDS011;51029;51.058;13.826;2024-02-16T09:35:56;19.20;;;17.10;;
64619;SDS011;51029;51.058;13.826;2024-02-16T09:38:22;19.10;;;17.07;;
64619;SDS011;51029;51.058;13.826;2024-02-16T09:40:48;18.43;;;16.53;;
64619;SDS011;51029;51.058;13.826;2024-02-16T09:43:27;18.37;;;16.37;;
64619;SDS011;51029;51.058;13.826;2024-02-16T09:45:54;19.70;;;16.60;;
64619;SDS011;51029;51.058;13.826;2024-02-16T09:48:20;17.17;;;15.37;;
64619;SDS011;51029;51.058;13.826;2024-02-16T09:50:46;17.23;;;15.43;;
64619;SDS011;51029;51.058;13.826;2024-02-16T09:53:13;17.70;;;15.83;;
64619;SDS011;51029;51.058;13.826;2024-02-16T09:55:39;16.30;;;14.33;;
64619;SDS011;51029;51.058;13.826;2024-02-16T09:58:05;18.10;;;15.10;;
64619;SDS011;51029;51.058;13.826;2024-02-16T10:00:31;17.50;;;15.37;;
64619;SDS011;51029;51.058;13.826;2024-02-16T10:02:57;16.87;;;14.70;;
64619;SDS011;51029;51.058;13.826;2024-02-16T10:05:23;17.60;;;15.30;;
64619;SDS011;51029;51.058;13.826;2024-02-16T10:07:50;16.20;;;14.50;;
64619;SDS011;51029;51.058;13.826;2024-02-16T10:10:19;16.67;;;14.90;;
64619;SDS011;51029;51.058;13.826;2024-02-16T10:12:49;17.37;;;14.83;;
64619;SDS011;51029;51.058;13.826;2024-02-16T10:15:19;16.80;;;15.07;;
64619;SDS011;51029;51.058;13.826;2024-02-16T10:17:45;15.67;;;14.17;;
64619;SDS011;51029;51.058;13.826;2024-02-16T10:20:17;16.07;;;14.47;;
64619;SDS011;51029;51.058;13.826;2024-02-16T10:22:43;16.70;;;14.87;;
64619;SDS011;51029;51.058;13.826;2024-02-16T10:25:09;16.40;;;14.40;;
64619;SDS011;51029;51.058;13.826;2024-02-16T10:27:37;16.43;;;14.73;;
64619;SDS011;51029;51.058;13.826;2024-02-16T10:30:05;16.10;;;14.43;;
64619;SDS011;51029;51.058;13.826;2024-02-16T10:32:35;15.97;;;14.23;;
64619;SDS011;51029;51.058;13.826;2024-02-16T10:35:01;17.93;;;16.07;;
64619;SDS011;51029;51.058;13.826;2024-02-16T10:37:28;19.03;;;17.03;;
64619;SDS011;51029;51.058;13.826;2024-02-16T10:39:54;18.37;;;15.83;;
64619;SDS011;51029;51.058;13.826;2024-02-16T10:42:21;19.60;;;16.57;;
64619;SDS011;51029;51.058;13.826;2024-02-16T10:44:48;19.70;;;17.60;;
64619;SDS011;51029;51.058;13.826;2024-02-16T10:47:15;19.33;;;17.30;;
64619;SDS011;51029;51.058;13.826;2024-02-16T10:49:40;19.77;;;17.67;;
64619;SDS011;51029;51.058;13.826;2024-02-16T10:52:07;22.90;;;18.57;;
64619;SDS011;51029;51.058;13.826;2024-02-16T10:54:33;20.50;;;18.33;;
64619;SDS011;51029;51.058;13.826;2024-02-16T10:57:00;19.80;;;17.77;;
64619;SDS011;51029;51.058;13.826;2024-02-16T10:59:26;20.33;;;18.03;;
64619;SDS011;51029;51.058;13.826;2024-02-16T11:02:00;19.80;;;17.70;;
64619;SDS011;51029;51.058;13.826;2024-02-16T11:04:35;19.77;;;17.77;;
64619;SDS011;51029;51.058;13.826;2024-02-16T11:07:01;18.50;;;16.60;;
64619;SDS011;51029;51.058;13.826;2024-02-16T11:09:33;19.93;;;17.83;;
64619;SDS011;51029;51.058;13.826;2024-02-16T11:12:00;19.83;;;17.73;;
64619;SDS011;51029;51.058;13.826;2024-02-16T11:14:39;20.30;;;18.20;;
64619;SDS011;51029;51.058;13.826;2024-02-16T11:19:35;18.10;;;16.23;;
64619;SDS011;51029;51.058;13.826;2024-02-16T11:22:04;18.57;;;16.67;;
64619;SDS011;51029;51.058;13.826;2024-02-16T11:24:37;17.47;;;15.67;;
64619;SDS011;51029;51.058;13.826;2024-02-16T11:27:04;17.40;;;15.17;;
64619;SDS011;51029;51.058;13.826;2024-02-16T11:29:36;17.33;;;15.50;;
64619;SDS011;51029;51.058;13.826;2024-02-16T11:32:03;17.13;;;15.43;;
64619;SDS011;51029;51.058;13.826;2024-02-16T11:34:30;17.37;;;15.43;;
64619;SDS011;51029;51.058;13.826;2024-02-16T11:36:56;17.00;;;14.57;;
64619;SDS011;51029;51.058;13.826;2024-02-16T11:39:22;17.30;;;15.43;;
64619;SDS011;51029;51.058;13.826;2024-02-16T11:42:03;15.83;;;14.33;;
64619;SDS011;51029;51.058;13.826;2024-02-16T11:44:32;16.13;;;14.53;;
64619;SDS011;51029;51.058;13.826;2024-02-16T11:46:58;19.27;;;15.50;;
64619;SDS011;51029;51.058;13.826;2024-02-16T11:49:24;17.60;;;15.80;;
64619;SDS011;51029;51.058;13.826;2024-02-16T11:51:50;18.53;;;16.57;;
64619;SDS011;51029;51.058;13.826;2024-02-16T11:54:17;17.43;;;15.63;;
64619;SDS011;51029;51.058;13.826;2024-02-16T11:56:46;17.20;;;15.50;;
64619;SDS011;51029;51.058;13.826;2024-02-16T11:59:15;17.23;;;15.43;;
64619;SDS011;51029;51.058;13.826;2024-02-16T12:06:53;17.30;;;15.03;;
64619;SDS011;51029;51.058;13.826;2024-02-16T12:09:20;16.43;;;14.40;;
64619;SDS011;51029;51.058;13.826;2024-02-16T12:11:48;16.30;;;14.63;;
64619;SDS011;51029;51.058;13.826;2024-02-16T12:14:15;16.77;;;15.07;;
64619;SDS011;51029;51.058;13.826;2024-02-16T12:16:41;18.03;;;16.13;;
64619;SDS011;51029;51.058;13.826;2024-02-16T12:19:07;16.90;;;15.00;;
64619;SDS011;51029;51.058;13.826;2024-02-16T12:21:35;17.73;;;15.93;;
64619;SDS011;51029;51.058;13.826;2024-02-16T12:24:01;16.27;;;14.63;;
64619;SDS011;51029;51.058;13.826;2024-02-16T12:26:27;16.53;;;14.10;;
64619;SDS011;51029;51.058;13.826;2024-02-16T12:28:53;16.60;;;14.23;;
64619;SDS011;51029;51.058;13.826;2024-02-16T12:31:22;17.33;;;15.27;;
64619;SDS011;51029;51.058;13.826;2024-02-16T12:33:51;16.07;;;13.73;;
64619;SDS011;51029;51.058;13.826;2024-02-16T12:36:17;16.53;;;14.47;;
64619;SDS011;51029;51.058;13.826;2024-02-16T12:38:43;15.73;;;13.53;;
64619;SDS011;51029;51.058;13.826;2024-02-16T12:41:09;14.50;;;13.00;;
64619;SDS011;51029;51.058;13.826;2024-02-16T12:43:35;13.87;;;12.30;;
64619;SDS011;51029;51.058;13.826;2024-02-16T12:46:01;13.93;;;12.63;;
64619;SDS011;51029;51.058;13.826;2024-02-16T12:48:29;12.97;;;11.30;;
64619;SDS011;51029;51.058;13.826;2024-02-16T12:50:55;12.77;;;11.40;;
64619;SDS011;51029;51.058;13.826;2024-02-16T12:53:22;12.37;;;11.07;;
64619;SDS011;51029;51.058;13.826;2024-02-16T12:55:49;12.37;;;11.17;;
64619;SDS011;51029;51.058;13.826;2024-02-16T12:58:15;13.80;;;11.63;;
64619;SDS011;51029;51.058;13.826;2024-02-16T13:00:41;11.90;;;10.80;;
64619;SDS011;51029;51.058;13.826;2024-02-16T13:03:07;11.80;;;10.73;;
64619;SDS011;51029;51.058;13.826;2024-02-16T13:05:33;11.57;;;10.47;;
64619;SDS011;51029;51.058;13.826;2024-02-16T13:07:59;11.40;;;10.40;;
64619;SDS011;51029;51.058;13.826;2024-02-16T13:10:25;12.00;;;10.80;;
64619;SDS011;51029;51.058;13.826;2024-02-16T13:12:52;12.40;;;11.10;;
64619;SDS011;51029;51.058;13.826;2024-02-16T13:15:17;12.33;;;11.07;;
64619;SDS011;51029;51.058;13.826;2024-02-16T13:17:43;11.87;;;10.67;;
64619;SDS011;51029;51.058;13.826;2024-02-16T13:20:09;13.40;;;10.80;;
64619;SDS011;51029;51.058;13.826;2024-02-16T13:22:36;11.10;;;10.00;;
64619;SDS011;51029;51.058;13.826;2024-02-16T13:25:05;12.10;;;10.90;;
64619;SDS011;51029;51.058;13.826;2024-02-16T13:27:31;10.97;;;9.87;;
64619;SDS011;51029;51.058;13.826;2024-02-16T13:29:58;13.73;;;11.00;;
64619;SDS011;51029;51.058;13.826;2024-02-16T13:32:24;12.80;;;10.90;;
64619;SDS011;51029;51.058;13.826;2024-02-16T13:34:50;11.60;;;10.50;;
64619;SDS011;51029;51.058;13.826;2024-02-16T13:37:16;13.93;;;10.63;;
64619;SDS011;51029;51.058;13.826;2024-02-16T13:39:42;13.57;;;11.43;;
64619;SDS011;51029;51.058;13.826;2024-02-16T13:42:08;13.90;;;11.27;;
64619;SDS011;51029;51.058;13.826;2024-02-16T13:44:34;14.03;;;11.77;;
64619;SDS011;51029;51.058;13.826;2024-02-16T13:47:00;14.47;;;11.93;;
64619;SDS011;51029;51.058;13.826;2024-02-16T13:49:26;14.60;;;12.37;;
64619;SDS011;51029;51.058;13.826;2024-02-16T13:51:52;13.87;;;12.13;;
64619;SDS011;51029;51.058;13.826;2024-02-16T13:54:18;14.10;;;12.70;;
64619;SDS011;51029;51.058;13.826;2024-02-16T13:56:46;13.43;;;11.93;;
64619;SDS011;51029;51.058;13.826;2024-02-16T13:59:12;14.33;;;12.93;;
64619;SDS011;51029;51.058;13.826;2024-02-16T14:01:38;16.33;;;13.93;;
64619;SDS011;51029;51.058;13.826;2024-02-16T14:04:04;16.43;;;14.47;;
64619;SDS011;51029;51.058;13.826;2024-02-16T14:06:30;15.97;;;14.27;;
64619;SDS011;51029;51.058;13.826;2024-02-16T14:08:56;16.00;;;14.30;;
64619;SDS011;51029;51.058;13.826;2024-02-16T14:11:22;17.53;;;15.47;;
64619;SDS011;51029;51.058;13.826;2024-02-16T14:13:48;17.63;;;14.60;;